Aviation Digital Data Service (ADDS)

Output produced by METARs form (0054 UTC 22 September 2017)
found at http://www.aviationweather.gov/adds/metars/
 
TAF SUCA 212330Z 2200/2224 16015KT 5000 RA BKN015 OVC070 TX15/2218Z TN09/2210Z 
     TEMPO 2204/2210 15010KT 3000 BR BKN008 
     BECMG 2210/2214 15010KT 9999 BKN015
       
TAF SUDU 212330Z 2200/2224 16015KT 5000 RA BKN015 OVC070 TX15/2218Z TN09/2210Z 
     TEMPO 2204/2210 15010KT 3000 BR BKN008 
     BECMG 2210/2214 15010KT 9999 BKN015
       
TAF SUMU 212330Z 2200/2224 16015KT 5000 RA BKN015 OVC070 TX15/2218Z TN09/2210Z 
     TEMPO 2204/2210 15010KT 3000 BR BKN008 
     BECMG 2210/2214 15010KT 9999 BKN015
       
TAF SUAA 212330Z 2200/2224 16015KT 5000 RA BKN015 OVC070 TX15/2218Z TN09/2210Z 
     TEMPO 2204/2210 15010KT 3000 BR BKN008 
     BECMG 2210/2214 15010KT 9999 BKN015
       
TAF SULS 212330Z 2200/2224 16015KT 5000 RA BKN015 OVC070 TX15/2218Z TN09/2210Z 
     TEMPO 2204/2210 15010KT 3000 BR BKN008 
     BECMG 2210/2214 15010KT 9999 BKN015
       
TAF SURV 212330Z 2200/2224 16015KT 5000 RA BKN015 OVC070 TX19/2218Z TN11/2210Z 
     TEMPO 2204/2210 15010KT 3000 BR BKN008 
     BECMG 2210/2214 15010KT 9999 BKN015
       
TAF SUSO 212330Z 2200/2224 16015KT 5000 RA BKN015 OVC070 TX19/2218Z TN11/2210Z 
     TEMPO 2204/2210 15010KT 3000 BR BKN008 
     BECMG 2210/2214 15010KT 9999 BKN015